Flight Track Log - Related Links

Times and Time Zones

All times are in EDT time to prevent confusion due to time zone crossing. See the DAL3688 flight status page for this flight to view local times or setup timezone preferences in your user account.

Time Position Orientation Groundspeed Altitude Reporting Facility
EDT Latitude Longitude Course Direction KTS MPH feet Rate Location/Type
Fri 10:54:57 AM 42.2036 -83.3556 174° South 148 170 1,600  Level Cleveland Center
Fri 10:56:04 AM 42.1475 -83.3475 174° South 220 253 4,400 2,484 Climbing Cleveland Center
Fri 10:57:05 AM 42.0967 -83.2947 142° Southeast 295 339 6,900 2,087 Climbing Cleveland Center
Fri 10:58:45 AM 42.0697 -83.1119 101° East 304 350 10,000 1,650 Climbing Cleveland Center
Fri 10:59:45 AM 42.1017 -82.9844 71° East 321 369 11,300 1,750 Climbing Cleveland Center
Fri 11:00:45 AM 42.1336 -82.8511 72° East 345 397 13,500 2,150 Climbing Cleveland Center
Fri 11:01:45 AM 42.1653 -82.7150 73° East 360 414 15,600 2,000 Climbing Cleveland Center
Fri 11:02:45 AM 42.1969 -82.5731 73° East 378 435 17,500 1,850 Climbing Cleveland Center
Fri 11:03:45 AM 42.2244 -82.4253 76° East 385 443 19,300 1,500 Climbing Cleveland Center
Fri 11:04:45 AM 42.2142 -82.2764 95° East 396 456 20,500 1,350 Climbing Cleveland Center
Fri 11:05:45 AM 42.2019 -82.1192 96° East 403 464 22,000 1,400 Climbing Cleveland Center
Fri 11:06:45 AM 42.1892 -81.9619 96° East 420 483 23,300 1,050 Climbing Cleveland Center
Fri 11:07:45 AM 42.1156 -81.8539 133° Southeast 383 441 24,100 700 Climbing Cleveland Center
Fri 11:08:45 AM 42.0414 -81.7658 139° Southeast 383 441 24,700 800 Climbing Cleveland Center
Fri 11:09:45 AM 41.9547 -81.6664 140° Southeast 403 464 25,700 1,000 Climbing Cleveland Center
Fri 11:10:45 AM 41.8725 -81.5647 137° Southeast 408 470 26,700 650 Climbing Cleveland Center
Fri 11:11:45 AM 41.7836 -81.4686 141° Southeast 403 464 27,000 150 Climbing Cleveland Center
Fri 11:12:45 AM 41.6864 -81.3589 140° Southeast 403 464 27,000  Level Cleveland Center
Fri 11:13:45 AM 41.6183 -81.2247 124° Southeast 415 478 27,000  Level Cleveland Center
Fri 11:14:44 AM 41.5586 -81.0800 119° Southeast 435 501 27,000  Level Cleveland Center
Fri 11:15:45 AM 41.4989 -80.9353 119° Southeast 441 507 27,000  Level Cleveland Center
Fri 11:16:45 AM 41.4386 -80.7936 120° Southeast 441 507 27,000  Level Cleveland Center
Fri 11:17:45 AM 41.3806 -80.6494 118° Southeast 435 501 27,000 -400 Level Cleveland Center
Fri 11:18:45 AM 41.3200 -80.5114 120° Southeast 435 501 26,200 -850 Descending Cleveland Center
Fri 11:19:45 AM 41.2656 -80.3814 119° Southeast 440 506 25,300 -950 Descending Cleveland Center
Fri 11:20:45 AM 41.2069 -80.2408 119° Southeast 440 506 24,300 -1,000 Descending Cleveland Center
Fri 11:21:45 AM 41.1481 -80.1033 120° Southeast 440 506 23,300 -650 Descending Cleveland Center
Fri 11:22:45 AM 41.0869 -79.9661 121° Southeast 440 506 23,000 -150 Descending Cleveland Center
Fri 11:23:45 AM 41.0300 -79.8344 120° Southeast 429 494 23,000  Level Cleveland Center
Fri 11:24:44 AM 40.9728 -79.7003 119° Southeast 424 488 23,000  Level Cleveland Center
Fri 11:25:45 AM 40.9153 -79.5692 120° Southeast 424 488 23,000  Level Cleveland Center
Fri 11:26:45 AM 40.8556 -79.4356 121° Southeast 424 488 23,000  Level Cleveland Center
Fri 11:27:45 AM 40.7981 -79.3050 120° Southeast 424 488 23,000  Level Cleveland Center
Fri 11:28:45 AM 40.7381 -79.1692 120° Southeast 424 488 23,000  Level Cleveland Center
Fri 11:29:45 AM 40.6778 -79.0361 121° Southeast 424 488 23,000  Level Cleveland Center
Fri 11:30:45 AM 40.6175 -78.9008 120° Southeast 424 488 23,000  Level Cleveland Center
Fri 11:31:44 AM 40.5572 -78.7658 120° Southeast 424 488 23,000 -930 Level Cleveland Center
Fri 11:33:52 AM 40.4994 -78.4194 102° East 434 499 20,100 -1,372 Descending New York Center
Fri 11:34:52 AM 40.4783 -78.2617 100° East 434 499 18,700 -1,488 Descending New York Center
Fri 11:35:53 AM 40.4567 -78.1092 101° East 433 498 17,100 -1,587 Descending New York Center
Fri 11:36:53 AM 40.4378 -77.9761 101° East 419 482 15,500 -1,700 Descending New York Center
Fri 11:37:53 AM 40.4189 -77.8378 100° East 406 467 13,700 -1,780 Descending New York Center
Fri 11:38:51 AM 40.4011 -77.7186 101° East 368 423 12,000 -1,600 Descending New York Center
Fri 11:39:53 AM 40.3794 -77.5883 102° East 338 389 10,500 -1,574 Descending New York Center
Fri 11:40:53 AM 40.3622 -77.4858 102° East 320 368 8,800 -1,678 Descending New York Center
Fri 11:41:51 AM 40.3461 -77.3672 100° East 308 354 7,200 -1,361 Descending New York Center
Fri 11:42:52 AM 40.3325 -77.2733 101° East 303 349 6,100 -1,240 Descending New York Center
Fri 11:43:52 AM 40.3197 -77.1631 99° East 285 328 4,700 -1,180 Descending New York Center
Fri 11:44:54 AM 40.3114 -77.0861 98° East 256 295 3,700 -857 Descending New York Center
Fri 11:45:51 AM 40.2864 -77.0078 113° Southeast 217 250 3,000 -356 Descending New York Center
Fri 11:46:52 AM 40.2644 -76.9514 117° Southeast 204 235 3,000 -50 Level New York Center
Fri 11:47:52 AM 40.2386 -76.8864 117° Southeast 199 229 2,900 -100 Descending New York Center
Fri 11:52:00 AM 40.1859 -76.7639 120° Southeast  Level FlightAware Approximate

Login

Don't have an account? Register now (free) for customized features, flight alerts, and more!